sensor_id;sensor_type;location;lat;lon;timestamp;P1;durP1;ratioP1;P2;durP2;ratioP2
70337;SDS011;57757;53.198;19.646;2023-12-04T00:00:17;17.60;;;6.10;;
70337;SDS011;57757;53.198;19.646;2023-12-04T00:03:03;16.30;;;5.60;;
70337;SDS011;57757;53.198;19.646;2023-12-04T00:05:30;18.80;;;6.60;;
70337;SDS011;57757;53.198;19.646;2023-12-04T00:07:56;16.50;;;6.10;;
70337;SDS011;57757;53.198;19.646;2023-12-04T00:10:22;14.50;;;5.90;;
70337;SDS011;57757;53.198;19.646;2023-12-04T00:12:49;16.70;;;7.60;;
70337;SDS011;57757;53.198;19.646;2023-12-04T00:15:18;17.00;;;7.10;;
70337;SDS011;57757;53.198;19.646;2023-12-04T00:17:45;16.70;;;6.10;;
70337;SDS011;57757;53.198;19.646;2023-12-04T00:20:11;18.10;;;7.40;;
70337;SDS011;57757;53.198;19.646;2023-12-04T00:22:37;14.30;;;5.80;;
70337;SDS011;57757;53.198;19.646;2023-12-04T00:25:05;17.10;;;7.70;;
70337;SDS011;57757;53.198;19.646;2023-12-04T00:27:32;24.70;;;10.50;;
70337;SDS011;57757;53.198;19.646;2023-12-04T00:29:58;23.50;;;10.30;;
70337;SDS011;57757;53.198;19.646;2023-12-04T00:32:24;18.40;;;8.00;;
70337;SDS011;57757;53.198;19.646;2023-12-04T00:34:51;21.90;;;10.20;;
70337;SDS011;57757;53.198;19.646;2023-12-04T00:37:17;18.80;;;8.00;;
70337;SDS011;57757;53.198;19.646;2023-12-04T00:39:43;21.10;;;9.00;;
70337;SDS011;57757;53.198;19.646;2023-12-04T00:42:10;19.80;;;8.10;;
70337;SDS011;57757;53.198;19.646;2023-12-04T00:44:36;21.90;;;9.00;;
70337;SDS011;57757;53.198;19.646;2023-12-04T00:47:02;22.10;;;9.70;;
70337;SDS011;57757;53.198;19.646;2023-12-04T00:49:28;20.60;;;8.50;;
70337;SDS011;57757;53.198;19.646;2023-12-04T00:55:10;17.70;;;7.10;;
70337;SDS011;57757;53.198;19.646;2023-12-04T00:57:43;22.40;;;9.30;;
70337;SDS011;57757;53.198;19.646;2023-12-04T01:00:20;20.00;;;8.60;;
70337;SDS011;57757;53.198;19.646;2023-12-04T01:02:56;21.70;;;9.60;;
70337;SDS011;57757;53.198;19.646;2023-12-04T01:05:43;23.50;;;8.80;;
70337;SDS011;57757;53.198;19.646;2023-12-04T01:08:09;22.50;;;9.20;;
70337;SDS011;57757;53.198;19.646;2023-12-04T01:10:35;22.40;;;8.80;;
70337;SDS011;57757;53.198;19.646;2023-12-04T01:13:02;19.80;;;8.30;;
70337;SDS011;57757;53.198;19.646;2023-12-04T01:15:29;21.80;;;8.60;;
70337;SDS011;57757;53.198;19.646;2023-12-04T01:17:55;22.40;;;10.00;;
70337;SDS011;57757;53.198;19.646;2023-12-04T01:20:21;23.50;;;9.10;;
70337;SDS011;57757;53.198;19.646;2023-12-04T01:22:49;23.80;;;10.40;;
70337;SDS011;57757;53.198;19.646;2023-12-04T01:25:15;24.50;;;9.50;;
70337;SDS011;57757;53.198;19.646;2023-12-04T01:27:41;22.50;;;8.80;;
70337;SDS011;57757;53.198;19.646;2023-12-04T01:30:07;21.20;;;9.40;;
70337;SDS011;57757;53.198;19.646;2023-12-04T01:32:34;26.30;;;11.20;;
70337;SDS011;57757;53.198;19.646;2023-12-04T01:35:01;25.70;;;10.10;;
70337;SDS011;57757;53.198;19.646;2023-12-04T01:37:29;26.10;;;11.60;;
70337;SDS011;57757;53.198;19.646;2023-12-04T01:39:55;25.80;;;11.30;;
70337;SDS011;57757;53.198;19.646;2023-12-04T01:42:21;25.00;;;11.80;;
70337;SDS011;57757;53.198;19.646;2023-12-04T01:44:47;28.80;;;11.50;;
70337;SDS011;57757;53.198;19.646;2023-12-04T01:47:14;30.20;;;12.40;;
70337;SDS011;57757;53.198;19.646;2023-12-04T01:49:40;29.90;;;12.30;;
70337;SDS011;57757;53.198;19.646;2023-12-04T01:52:07;31.00;;;12.50;;
70337;SDS011;57757;53.198;19.646;2023-12-04T01:54:34;28.90;;;12.00;;
70337;SDS011;57757;53.198;19.646;2023-12-04T01:57:01;30.20;;;11.80;;
70337;SDS011;57757;53.198;19.646;2023-12-04T01:59:29;28.90;;;12.40;;
70337;SDS011;57757;53.198;19.646;2023-12-04T02:01:55;33.00;;;13.10;;
70337;SDS011;57757;53.198;19.646;2023-12-04T02:04:22;28.00;;;10.90;;
70337;SDS011;57757;53.198;19.646;2023-12-04T02:06:48;28.00;;;11.30;;
70337;SDS011;57757;53.198;19.646;2023-12-04T02:09:14;32.70;;;13.10;;
70337;SDS011;57757;53.198;19.646;2023-12-04T02:11:42;35.30;;;14.20;;
70337;SDS011;57757;53.198;19.646;2023-12-04T02:14:08;25.50;;;10.90;;
70337;SDS011;57757;53.198;19.646;2023-12-04T02:16:38;29.80;;;12.20;;
70337;SDS011;57757;53.198;19.646;2023-12-04T02:19:07;28.30;;;11.10;;
70337;SDS011;57757;53.198;19.646;2023-12-04T02:21:37;25.10;;;9.70;;
70337;SDS011;57757;53.198;19.646;2023-12-04T02:24:04;25.70;;;9.80;;
70337;SDS011;57757;53.198;19.646;2023-12-04T02:26:32;29.40;;;11.70;;
70337;SDS011;57757;53.198;19.646;2023-12-04T02:29:05;23.50;;;9.90;;
70337;SDS011;57757;53.198;19.646;2023-12-04T02:31:37;28.30;;;10.90;;
70337;SDS011;57757;53.198;19.646;2023-12-04T02:34:06;24.70;;;10.80;;
70337;SDS011;57757;53.198;19.646;2023-12-04T02:36:34;25.60;;;11.00;;
70337;SDS011;57757;53.198;19.646;2023-12-04T02:39:02;27.00;;;10.80;;
70337;SDS011;57757;53.198;19.646;2023-12-04T02:41:30;25.10;;;10.50;;
70337;SDS011;57757;53.198;19.646;2023-12-04T02:43:56;27.40;;;10.90;;
70337;SDS011;57757;53.198;19.646;2023-12-04T02:46:22;23.50;;;9.30;;
70337;SDS011;57757;53.198;19.646;2023-12-04T02:48:49;23.80;;;10.40;;
70337;SDS011;57757;53.198;19.646;2023-12-04T02:51:15;25.90;;;10.20;;
70337;SDS011;57757;53.198;19.646;2023-12-04T02:53:42;24.30;;;10.30;;
70337;SDS011;57757;53.198;19.646;2023-12-04T02:56:08;25.00;;;10.00;;
70337;SDS011;57757;53.198;19.646;2023-12-04T02:58:35;26.80;;;10.40;;
70337;SDS011;57757;53.198;19.646;2023-12-04T03:01:01;25.50;;;10.30;;
70337;SDS011;57757;53.198;19.646;2023-12-04T03:03:28;28.50;;;13.00;;
70337;SDS011;57757;53.198;19.646;2023-12-04T03:05:54;26.40;;;11.50;;
70337;SDS011;57757;53.198;19.646;2023-12-04T03:08:20;29.90;;;13.20;;
70337;SDS011;57757;53.198;19.646;2023-12-04T03:10:46;111.00;;;47.20;;
70337;SDS011;57757;53.198;19.646;2023-12-04T03:13:13;53.90;;;27.40;;
70337;SDS011;57757;53.198;19.646;2023-12-04T03:15:39;34.10;;;16.00;;
70337;SDS011;57757;53.198;19.646;2023-12-04T03:18:05;27.10;;;12.30;;
70337;SDS011;57757;53.198;19.646;2023-12-04T03:20:33;30.10;;;11.10;;
70337;SDS011;57757;53.198;19.646;2023-12-04T03:23:00;47.60;;;24.00;;
70337;SDS011;57757;53.198;19.646;2023-12-04T03:25:26;38.60;;;20.50;;
70337;SDS011;57757;53.198;19.646;2023-12-04T03:27:52;26.50;;;10.70;;
70337;SDS011;57757;53.198;19.646;2023-12-04T03:30:18;31.50;;;13.00;;
70337;SDS011;57757;53.198;19.646;2023-12-04T03:32:46;25.50;;;10.60;;
70337;SDS011;57757;53.198;19.646;2023-12-04T03:35:12;26.40;;;10.60;;
70337;SDS011;57757;53.198;19.646;2023-12-04T03:37:38;33.60;;;16.70;;
70337;SDS011;57757;53.198;19.646;2023-12-04T03:40:05;51.00;;;28.90;;
70337;SDS011;57757;53.198;19.646;2023-12-04T03:42:31;53.40;;;33.50;;
70337;SDS011;57757;53.198;19.646;2023-12-04T03:44:58;45.40;;;25.30;;
70337;SDS011;57757;53.198;19.646;2023-12-04T03:47:25;30.30;;;14.00;;
70337;SDS011;57757;53.198;19.646;2023-12-04T03:49:51;27.50;;;12.20;;
70337;SDS011;57757;53.198;19.646;2023-12-04T03:52:17;23.90;;;10.50;;
70337;SDS011;57757;53.198;19.646;2023-12-04T03:54:43;24.10;;;10.10;;
70337;SDS011;57757;53.198;19.646;2023-12-04T03:57:12;26.80;;;11.40;;
70337;SDS011;57757;53.198;19.646;2023-12-04T03:59:38;27.60;;;12.10;;
70337;SDS011;57757;53.198;19.646;2023-12-04T04:02:04;26.00;;;10.30;;
70337;SDS011;57757;53.198;19.646;2023-12-04T04:04:31;30.50;;;15.00;;
70337;SDS011;57757;53.198;19.646;2023-12-04T04:06:58;58.20;;;29.10;;
70337;SDS011;57757;53.198;19.646;2023-12-04T04:09:24;55.40;;;32.80;;
70337;SDS011;57757;53.198;19.646;2023-12-04T04:11:50;36.60;;;17.40;;
70337;SDS011;57757;53.198;19.646;2023-12-04T04:14:17;39.10;;;19.80;;
70337;SDS011;57757;53.198;19.646;2023-12-04T04:16:43;42.90;;;23.30;;
70337;SDS011;57757;53.198;19.646;2023-12-04T04:19:09;34.10;;;16.60;;
70337;SDS011;57757;53.198;19.646;2023-12-04T04:21:41;31.30;;;13.80;;
70337;SDS011;57757;53.198;19.646;2023-12-04T04:24:07;25.00;;;10.70;;
70337;SDS011;57757;53.198;19.646;2023-12-04T04:26:34;22.00;;;9.20;;
70337;SDS011;57757;53.198;19.646;2023-12-04T04:29:00;22.30;;;10.10;;
70337;SDS011;57757;53.198;19.646;2023-12-04T04:31:26;27.00;;;9.90;;
70337;SDS011;57757;53.198;19.646;2023-12-04T04:33:52;25.30;;;10.00;;
70337;SDS011;57757;53.198;19.646;2023-12-04T04:36:18;24.50;;;9.30;;
70337;SDS011;57757;53.198;19.646;2023-12-04T04:38:45;24.70;;;10.00;;
70337;SDS011;57757;53.198;19.646;2023-12-04T04:41:14;21.60;;;9.30;;
70337;SDS011;57757;53.198;19.646;2023-12-04T04:43:41;25.80;;;10.40;;
70337;SDS011;57757;53.198;19.646;2023-12-04T04:46:08;23.80;;;9.90;;
70337;SDS011;57757;53.198;19.646;2023-12-04T04:48:35;25.10;;;11.00;;
70337;SDS011;57757;53.198;19.646;2023-12-04T04:51:01;23.80;;;9.30;;
70337;SDS011;57757;53.198;19.646;2023-12-04T04:53:28;28.40;;;11.60;;
70337;SDS011;57757;53.198;19.646;2023-12-04T04:55:54;28.30;;;11.10;;
70337;SDS011;57757;53.198;19.646;2023-12-04T04:58:21;26.20;;;9.90;;
70337;SDS011;57757;53.198;19.646;2023-12-04T05:00:47;28.30;;;11.80;;
70337;SDS011;57757;53.198;19.646;2023-12-04T05:03:14;29.60;;;12.20;;
70337;SDS011;57757;53.198;19.646;2023-12-04T05:05:40;32.90;;;12.40;;
70337;SDS011;57757;53.198;19.646;2023-12-04T05:08:07;31.20;;;12.00;;
70337;SDS011;57757;53.198;19.646;2023-12-04T05:10:33;28.20;;;11.30;;
70337;SDS011;57757;53.198;19.646;2023-12-04T05:12:59;26.30;;;10.50;;
70337;SDS011;57757;53.198;19.646;2023-12-04T05:15:26;29.20;;;11.80;;
70337;SDS011;57757;53.198;19.646;2023-12-04T05:17:53;24.80;;;10.70;;
70337;SDS011;57757;53.198;19.646;2023-12-04T05:20:19;23.10;;;10.50;;
70337;SDS011;57757;53.198;19.646;2023-12-04T05:22:45;22.10;;;10.60;;
70337;SDS011;57757;53.198;19.646;2023-12-04T05:25:12;25.50;;;10.80;;
70337;SDS011;57757;53.198;19.646;2023-12-04T05:27:38;32.90;;;16.10;;
70337;SDS011;57757;53.198;19.646;2023-12-04T05:30:05;38.50;;;19.60;;
70337;SDS011;57757;53.198;19.646;2023-12-04T05:32:32;29.10;;;11.90;;
70337;SDS011;57757;53.198;19.646;2023-12-04T05:34:58;22.40;;;9.70;;
70337;SDS011;57757;53.198;19.646;2023-12-04T05:37:24;28.40;;;11.50;;
70337;SDS011;57757;53.198;19.646;2023-12-04T05:39:50;30.30;;;12.10;;
70337;SDS011;57757;53.198;19.646;2023-12-04T05:42:17;32.10;;;12.50;;
70337;SDS011;57757;53.198;19.646;2023-12-04T05:44:43;49.90;;;19.70;;
70337;SDS011;57757;53.198;19.646;2023-12-04T05:47:09;49.50;;;19.60;;
70337;SDS011;57757;53.198;19.646;2023-12-04T05:49:36;35.50;;;14.20;;
70337;SDS011;57757;53.198;19.646;2023-12-04T05:52:02;36.70;;;15.90;;
70337;SDS011;57757;53.198;19.646;2023-12-04T05:54:29;49.80;;;24.90;;
70337;SDS011;57757;53.198;19.646;2023-12-04T05:56:56;26.40;;;9.00;;
70337;SDS011;57757;53.198;19.646;2023-12-04T05:59:22;27.70;;;10.90;;
70337;SDS011;57757;53.198;19.646;2023-12-04T06:01:48;21.90;;;9.40;;
70337;SDS011;57757;53.198;19.646;2023-12-04T06:04:14;50.30;;;20.50;;
70337;SDS011;57757;53.198;19.646;2023-12-04T06:06:41;39.90;;;14.60;;
70337;SDS011;57757;53.198;19.646;2023-12-04T06:09:07;29.10;;;10.10;;
70337;SDS011;57757;53.198;19.646;2023-12-04T06:11:33;26.10;;;10.20;;
70337;SDS011;57757;53.198;19.646;2023-12-04T06:14:00;22.60;;;8.80;;
70337;SDS011;57757;53.198;19.646;2023-12-04T06:16:26;22.70;;;8.50;;
70337;SDS011;57757;53.198;19.646;2023-12-04T06:18:52;26.90;;;9.60;;
70337;SDS011;57757;53.198;19.646;2023-12-04T06:21:18;22.90;;;9.20;;
70337;SDS011;57757;53.198;19.646;2023-12-04T06:23:45;22.10;;;8.00;;
70337;SDS011;57757;53.198;19.646;2023-12-04T06:26:11;22.00;;;8.40;;
70337;SDS011;57757;53.198;19.646;2023-12-04T06:28:38;27.30;;;9.30;;
70337;SDS011;57757;53.198;19.646;2023-12-04T06:31:05;25.40;;;9.80;;
70337;SDS011;57757;53.198;19.646;2023-12-04T06:33:32;27.70;;;9.80;;
70337;SDS011;57757;53.198;19.646;2023-12-04T06:35:58;32.00;;;11.20;;
70337;SDS011;57757;53.198;19.646;2023-12-04T06:38:25;26.70;;;10.50;;
70337;SDS011;57757;53.198;19.646;2023-12-04T06:40:51;35.40;;;12.30;;
70337;SDS011;57757;53.198;19.646;2023-12-04T06:43:18;40.70;;;13.30;;
70337;SDS011;57757;53.198;19.646;2023-12-04T06:45:45;59.50;;;18.80;;
70337;SDS011;57757;53.198;19.646;2023-12-04T06:48:12;37.20;;;12.30;;
70337;SDS011;57757;53.198;19.646;2023-12-04T06:50:41;36.70;;;14.30;;
70337;SDS011;57757;53.198;19.646;2023-12-04T06:53:07;52.70;;;20.70;;
70337;SDS011;57757;53.198;19.646;2023-12-04T06:55:33;30.90;;;12.10;;
70337;SDS011;57757;53.198;19.646;2023-12-04T06:57:59;37.10;;;14.60;;
70337;SDS011;57757;53.198;19.646;2023-12-04T07:00:26;28.30;;;12.20;;
70337;SDS011;57757;53.198;19.646;2023-12-04T07:02:52;27.90;;;12.60;;
70337;SDS011;57757;53.198;19.646;2023-12-04T07:05:19;30.40;;;11.20;;
70337;SDS011;57757;53.198;19.646;2023-12-04T07:07:46;39.30;;;15.20;;
70337;SDS011;57757;53.198;19.646;2023-12-04T07:10:13;35.70;;;15.10;;
70337;SDS011;57757;53.198;19.646;2023-12-04T07:12:41;67.40;;;24.70;;
70337;SDS011;57757;53.198;19.646;2023-12-04T07:15:08;55.50;;;18.40;;
70337;SDS011;57757;53.198;19.646;2023-12-04T07:17:35;42.50;;;15.40;;
70337;SDS011;57757;53.198;19.646;2023-12-04T07:20:02;46.40;;;18.40;;
70337;SDS011;57757;53.198;19.646;2023-12-04T07:22:32;31.50;;;13.00;;
70337;SDS011;57757;53.198;19.646;2023-12-04T07:25:05;32.20;;;12.80;;
70337;SDS011;57757;53.198;19.646;2023-12-04T07:27:35;35.30;;;13.70;;
70337;SDS011;57757;53.198;19.646;2023-12-04T07:30:02;44.20;;;17.50;;
70337;SDS011;57757;53.198;19.646;2023-12-04T07:32:29;24.40;;;8.70;;
70337;SDS011;57757;53.198;19.646;2023-12-04T07:34:55;24.10;;;11.30;;
70337;SDS011;57757;53.198;19.646;2023-12-04T07:37:22;28.50;;;11.80;;
70337;SDS011;57757;53.198;19.646;2023-12-04T07:39:48;27.30;;;11.10;;
70337;SDS011;57757;53.198;19.646;2023-12-04T07:42:15;28.10;;;12.30;;
70337;SDS011;57757;53.198;19.646;2023-12-04T07:44:41;23.30;;;9.50;;
70337;SDS011;57757;53.198;19.646;2023-12-04T07:47:07;28.20;;;11.50;;
70337;SDS011;57757;53.198;19.646;2023-12-04T07:49:33;24.90;;;10.00;;
70337;SDS011;57757;53.198;19.646;2023-12-04T07:52:00;34.70;;;13.30;;
70337;SDS011;57757;53.198;19.646;2023-12-04T07:54:28;30.80;;;13.00;;
70337;SDS011;57757;53.198;19.646;2023-12-04T07:57:13;38.40;;;14.80;;
70337;SDS011;57757;53.198;19.646;2023-12-04T07:59:59;30.20;;;12.30;;
70337;SDS011;57757;53.198;19.646;2023-12-04T08:02:27;42.80;;;19.40;;
70337;SDS011;57757;53.198;19.646;2023-12-04T08:04:54;28.60;;;11.80;;
70337;SDS011;57757;53.198;19.646;2023-12-04T08:07:20;22.90;;;9.80;;
70337;SDS011;57757;53.198;19.646;2023-12-04T08:09:46;25.80;;;10.80;;
70337;SDS011;57757;53.198;19.646;2023-12-04T08:12:13;26.50;;;11.00;;
70337;SDS011;57757;53.198;19.646;2023-12-04T08:14:39;29.40;;;12.60;;
70337;SDS011;57757;53.198;19.646;2023-12-04T08:17:05;43.50;;;17.40;;
70337;SDS011;57757;53.198;19.646;2023-12-04T08:19:31;41.90;;;15.90;;
70337;SDS011;57757;53.198;19.646;2023-12-04T08:21:58;40.20;;;16.40;;
70337;SDS011;57757;53.198;19.646;2023-12-04T08:24:24;55.30;;;20.00;;
70337;SDS011;57757;53.198;19.646;2023-12-04T08:26:51;42.40;;;15.30;;
70337;SDS011;57757;53.198;19.646;2023-12-04T08:29:17;46.90;;;17.40;;
70337;SDS011;57757;53.198;19.646;2023-12-04T08:31:44;54.00;;;19.60;;
70337;SDS011;57757;53.198;19.646;2023-12-04T08:34:10;36.00;;;14.90;;
70337;SDS011;57757;53.198;19.646;2023-12-04T08:36:36;47.30;;;18.80;;
70337;SDS011;57757;53.198;19.646;2023-12-04T08:39:12;33.10;;;12.70;;
70337;SDS011;57757;53.198;19.646;2023-12-04T08:41:39;37.70;;;15.10;;
70337;SDS011;57757;53.198;19.646;2023-12-04T08:44:13;37.10;;;17.10;;
70337;SDS011;57757;53.198;19.646;2023-12-04T08:46:42;46.90;;;18.00;;
70337;SDS011;57757;53.198;19.646;2023-12-04T08:49:10;48.80;;;16.80;;
70337;SDS011;57757;53.198;19.646;2023-12-04T08:51:36;40.80;;;15.60;;
70337;SDS011;57757;53.198;19.646;2023-12-04T08:54:03;39.00;;;16.10;;
70337;SDS011;57757;53.198;19.646;2023-12-04T08:56:43;42.20;;;16.70;;
70337;SDS011;57757;53.198;19.646;2023-12-04T08:59:10;67.80;;;20.10;;
70337;SDS011;57757;53.198;19.646;2023-12-04T09:01:36;55.20;;;21.30;;
70337;SDS011;57757;53.198;19.646;2023-12-04T09:04:03;38.40;;;16.50;;
70337;SDS011;57757;53.198;19.646;2023-12-04T09:06:30;56.70;;;19.40;;
70337;SDS011;57757;53.198;19.646;2023-12-04T09:08:59;60.10;;;19.40;;
70337;SDS011;57757;53.198;19.646;2023-12-04T09:11:34;72.20;;;23.60;;
70337;SDS011;57757;53.198;19.646;2023-12-04T09:14:01;52.70;;;20.90;;
70337;SDS011;57757;53.198;19.646;2023-12-04T09:16:28;43.50;;;18.50;;
70337;SDS011;57757;53.198;19.646;2023-12-04T09:18:54;39.10;;;16.90;;
70337;SDS011;57757;53.198;19.646;2023-12-04T09:21:21;39.80;;;16.70;;
70337;SDS011;57757;53.198;19.646;2023-12-04T09:23:47;47.20;;;20.20;;
70337;SDS011;57757;53.198;19.646;2023-12-04T09:26:16;42.90;;;17.60;;
70337;SDS011;57757;53.198;19.646;2023-12-04T09:28:43;47.30;;;18.20;;
70337;SDS011;57757;53.198;19.646;2023-12-04T09:31:09;49.80;;;20.60;;
70337;SDS011;57757;53.198;19.646;2023-12-04T09:33:36;70.00;;;33.00;;
70337;SDS011;57757;53.198;19.646;2023-12-04T09:36:03;54.90;;;20.70;;
70337;SDS011;57757;53.198;19.646;2023-12-04T09:38:30;53.30;;;20.60;;
70337;SDS011;57757;53.198;19.646;2023-12-04T09:40:58;71.70;;;24.90;;
70337;SDS011;57757;53.198;19.646;2023-12-04T09:43:30;42.00;;;15.70;;
70337;SDS011;57757;53.198;19.646;2023-12-04T09:46:01;45.80;;;18.60;;
70337;SDS011;57757;53.198;19.646;2023-12-04T09:48:27;41.90;;;17.70;;
70337;SDS011;57757;53.198;19.646;2023-12-04T09:50:57;66.90;;;26.00;;
70337;SDS011;57757;53.198;19.646;2023-12-04T09:53:26;46.10;;;17.60;;
70337;SDS011;57757;53.198;19.646;2023-12-04T09:55:54;47.30;;;18.50;;
70337;SDS011;57757;53.198;19.646;2023-12-04T09:58:25;47.80;;;19.80;;
70337;SDS011;57757;53.198;19.646;2023-12-04T10:00:55;47.70;;;19.40;;
70337;SDS011;57757;53.198;19.646;2023-12-04T10:03:24;57.50;;;23.40;;
70337;SDS011;57757;53.198;19.646;2023-12-04T10:05:53;44.30;;;18.30;;
70337;SDS011;57757;53.198;19.646;2023-12-04T10:08:20;54.60;;;20.80;;
70337;SDS011;57757;53.198;19.646;2023-12-04T10:10:47;48.70;;;18.90;;
70337;SDS011;57757;53.198;19.646;2023-12-04T10:13:14;53.90;;;21.40;;
70337;SDS011;57757;53.198;19.646;2023-12-04T10:16:01;45.20;;;19.20;;
70337;SDS011;57757;53.198;19.646;2023-12-04T10:18:29;48.30;;;18.70;;
70337;SDS011;57757;53.198;19.646;2023-12-04T10:20:56;52.70;;;22.50;;
70337;SDS011;57757;53.198;19.646;2023-12-04T10:26:07;67.40;;;28.90;;
70337;SDS011;57757;53.198;19.646;2023-12-04T10:28:34;60.10;;;23.30;;
70337;SDS011;57757;53.198;19.646;2023-12-04T10:31:01;63.60;;;23.80;;
70337;SDS011;57757;53.198;19.646;2023-12-04T10:33:30;54.80;;;21.40;;
70337;SDS011;57757;53.198;19.646;2023-12-04T10:35:58;50.70;;;18.60;;
70337;SDS011;57757;53.198;19.646;2023-12-04T10:38:24;41.90;;;17.40;;
70337;SDS011;57757;53.198;19.646;2023-12-04T10:40:53;59.80;;;20.60;;
70337;SDS011;57757;53.198;19.646;2023-12-04T10:43:20;92.40;;;30.90;;
70337;SDS011;57757;53.198;19.646;2023-12-04T10:45:48;77.20;;;26.80;;
70337;SDS011;57757;53.198;19.646;2023-12-04T10:48:16;69.00;;;25.80;;
70337;SDS011;57757;53.198;19.646;2023-12-04T10:50:44;77.60;;;30.20;;
70337;SDS011;57757;53.198;19.646;2023-12-04T10:53:13;235.00;;;59.00;;
70337;SDS011;57757;53.198;19.646;2023-12-04T10:55:40;196.90;;;50.70;;
70337;SDS011;57757;53.198;19.646;2023-12-04T10:58:09;188.80;;;52.00;;
70337;SDS011;57757;53.198;19.646;2023-12-04T11:03:26;115.00;;;30.30;;
70337;SDS011;57757;53.198;19.646;2023-12-04T11:06:07;154.90;;;39.60;;
70337;SDS011;57757;53.198;19.646;2023-12-04T11:08:36;67.50;;;23.00;;
70337;SDS011;57757;53.198;19.646;2023-12-04T11:11:05;72.30;;;26.30;;
70337;SDS011;57757;53.198;19.646;2023-12-04T11:13:50;46.80;;;18.80;;
70337;SDS011;57757;53.198;19.646;2023-12-04T11:16:31;47.00;;;20.00;;
70337;SDS011;57757;53.198;19.646;2023-12-04T11:21:39;56.50;;;21.60;;
70337;SDS011;57757;53.198;19.646;2023-12-04T11:24:06;48.10;;;19.10;;
70337;SDS011;57757;53.198;19.646;2023-12-04T11:26:34;45.50;;;17.90;;
70337;SDS011;57757;53.198;19.646;2023-12-04T11:29:02;45.80;;;19.70;;
70337;SDS011;57757;53.198;19.646;2023-12-04T11:31:29;38.90;;;16.90;;
70337;SDS011;57757;53.198;19.646;2023-12-04T11:34:01;54.50;;;23.90;;
70337;SDS011;57757;53.198;19.646;2023-12-04T11:36:29;44.80;;;18.80;;
70337;SDS011;57757;53.198;19.646;2023-12-04T11:38:55;46.70;;;20.90;;
70337;SDS011;57757;53.198;19.646;2023-12-04T11:41:24;47.30;;;18.00;;
70337;SDS011;57757;53.198;19.646;2023-12-04T11:43:56;40.60;;;19.40;;
70337;SDS011;57757;53.198;19.646;2023-12-04T11:46:25;43.20;;;17.50;;
70337;SDS011;57757;53.198;19.646;2023-12-04T11:51:50;39.60;;;17.00;;
70337;SDS011;57757;53.198;19.646;2023-12-04T11:54:18;43.40;;;18.70;;
70337;SDS011;57757;53.198;19.646;2023-12-04T11:59:37;39.30;;;16.90;;
70337;SDS011;57757;53.198;19.646;2023-12-04T12:02:09;47.20;;;18.60;;
70337;SDS011;57757;53.198;19.646;2023-12-04T12:04:37;41.60;;;17.00;;
70337;SDS011;57757;53.198;19.646;2023-12-04T12:07:07;40.40;;;15.30;;
70337;SDS011;57757;53.198;19.646;2023-12-04T12:09:34;42.50;;;17.10;;
70337;SDS011;57757;53.198;19.646;2023-12-04T12:12:06;47.30;;;19.50;;
70337;SDS011;57757;53.198;19.646;2023-12-04T12:14:33;42.50;;;17.50;;
70337;SDS011;57757;53.198;19.646;2023-12-04T12:17:00;43.20;;;17.20;;
70337;SDS011;57757;53.198;19.646;2023-12-04T12:19:27;42.50;;;16.70;;
70337;SDS011;57757;53.198;19.646;2023-12-04T12:21:54;51.90;;;20.40;;
70337;SDS011;57757;53.198;19.646;2023-12-04T12:24:23;72.60;;;27.20;;
70337;SDS011;57757;53.198;19.646;2023-12-04T12:26:53;62.50;;;23.30;;
70337;SDS011;57757;53.198;19.646;2023-12-04T12:29:21;47.30;;;18.60;;
70337;SDS011;57757;53.198;19.646;2023-12-04T12:31:47;44.50;;;18.50;;
70337;SDS011;57757;53.198;19.646;2023-12-04T12:34:19;51.70;;;19.30;;
70337;SDS011;57757;53.198;19.646;2023-12-04T12:36:46;62.40;;;22.20;;
70337;SDS011;57757;53.198;19.646;2023-12-04T12:39:13;63.20;;;23.00;;
70337;SDS011;57757;53.198;19.646;2023-12-04T12:41:48;52.00;;;19.80;;
70337;SDS011;57757;53.198;19.646;2023-12-04T12:44:16;125.50;;;37.90;;
70337;SDS011;57757;53.198;19.646;2023-12-04T12:46:46;72.70;;;25.00;;
70337;SDS011;57757;53.198;19.646;2023-12-04T12:49:18;55.40;;;21.60;;
70337;SDS011;57757;53.198;19.646;2023-12-04T12:52:02;57.90;;;21.30;;
70337;SDS011;57757;53.198;19.646;2023-12-04T12:54:31;47.10;;;19.00;;
70337;SDS011;57757;53.198;19.646;2023-12-04T12:57:01;89.90;;;29.60;;
70337;SDS011;57757;53.198;19.646;2023-12-04T12:59:35;80.80;;;27.40;;
70337;SDS011;57757;53.198;19.646;2023-12-04T13:02:02;59.70;;;21.90;;
70337;SDS011;57757;53.198;19.646;2023-12-04T13:04:35;70.60;;;25.70;;
70337;SDS011;57757;53.198;19.646;2023-12-04T13:07:09;104.80;;;33.20;;
70337;SDS011;57757;53.198;19.646;2023-12-04T13:09:37;84.70;;;30.70;;
70337;SDS011;57757;53.198;19.646;2023-12-04T13:12:07;56.20;;;20.80;;
70337;SDS011;57757;53.198;19.646;2023-12-04T13:14:34;54.80;;;20.90;;
70337;SDS011;57757;53.198;19.646;2023-12-04T13:17:05;57.40;;;23.80;;
70337;SDS011;57757;53.198;19.646;2023-12-04T13:19:33;49.30;;;18.90;;
70337;SDS011;57757;53.198;19.646;2023-12-04T13:22:02;53.40;;;19.00;;
70337;SDS011;57757;53.198;19.646;2023-12-04T13:24:31;58.80;;;22.00;;
70337;SDS011;57757;53.198;19.646;2023-12-04T13:27:04;57.20;;;20.10;;
70337;SDS011;57757;53.198;19.646;2023-12-04T13:29:34;51.70;;;19.50;;
70337;SDS011;57757;53.198;19.646;2023-12-04T13:32:01;53.40;;;19.20;;
70337;SDS011;57757;53.198;19.646;2023-12-04T13:34:28;76.30;;;29.70;;
70337;SDS011;57757;53.198;19.646;2023-12-04T13:36:54;52.60;;;18.90;;
70337;SDS011;57757;53.198;19.646;2023-12-04T13:39:22;50.80;;;19.10;;
70337;SDS011;57757;53.198;19.646;2023-12-04T13:42:04;50.00;;;19.80;;
70337;SDS011;57757;53.198;19.646;2023-12-04T13:44:46;56.70;;;20.40;;
70337;SDS011;57757;53.198;19.646;2023-12-04T13:47:13;53.70;;;20.70;;
70337;SDS011;57757;53.198;19.646;2023-12-04T13:49:40;60.50;;;20.40;;
70337;SDS011;57757;53.198;19.646;2023-12-04T13:52:08;51.80;;;18.80;;
70337;SDS011;57757;53.198;19.646;2023-12-04T13:54:34;53.60;;;20.20;;
70337;SDS011;57757;53.198;19.646;2023-12-04T13:57:10;65.30;;;22.60;;
70337;SDS011;57757;53.198;19.646;2023-12-04T13:59:47;57.10;;;21.90;;
70337;SDS011;57757;53.198;19.646;2023-12-04T14:02:13;54.50;;;21.00;;
70337;SDS011;57757;53.198;19.646;2023-12-04T14:04:41;84.00;;;26.20;;
70337;SDS011;57757;53.198;19.646;2023-12-04T14:07:08;62.40;;;21.00;;
70337;SDS011;57757;53.198;19.646;2023-12-04T14:09:37;96.20;;;38.50;;
70337;SDS011;57757;53.198;19.646;2023-12-04T14:12:03;74.20;;;29.00;;
70337;SDS011;57757;53.198;19.646;2023-12-04T14:14:31;77.30;;;25.10;;
70337;SDS011;57757;53.198;19.646;2023-12-04T14:16:59;69.40;;;25.40;;
70337;SDS011;57757;53.198;19.646;2023-12-04T14:19:25;60.70;;;23.50;;
70337;SDS011;57757;53.198;19.646;2023-12-04T14:21:52;61.40;;;22.50;;
70337;SDS011;57757;53.198;19.646;2023-12-04T14:24:18;71.10;;;26.90;;
70337;SDS011;57757;53.198;19.646;2023-12-04T14:26:44;59.50;;;23.00;;
70337;SDS011;57757;53.198;19.646;2023-12-04T14:29:10;57.40;;;21.00;;
70337;SDS011;57757;53.198;19.646;2023-12-04T14:31:39;57.00;;;19.70;;